createdAt,value
2017-08-28T00:02:21.923Z,72.56
2017-08-28T00:04:50.970Z,73.20
2017-08-28T00:07:20.037Z,72.89
2017-08-28T00:09:49.103Z,72.90
2017-08-28T00:12:18.154Z,73.01
2017-08-28T00:14:47.268Z,73.65
2017-08-28T00:17:16.356Z,73.23
2017-08-28T00:19:45.408Z,73.08
2017-08-28T00:22:14.472Z,73.07
2017-08-28T00:24:43.536Z,73.13
2017-08-28T00:27:12.591Z,73.22
2017-08-28T00:29:41.678Z,73.04
2017-08-28T00:32:10.857Z,72.86
2017-08-28T00:34:40.225Z,72.82
2017-08-28T00:37:09.300Z,72.72
2017-08-28T00:39:38.357Z,72.66
2017-08-28T00:42:07.462Z,72.93
2017-08-28T00:44:36.505Z,72.61
2017-08-28T00:47:05.809Z,72.67
2017-08-28T00:49:34.876Z,72.82
2017-08-28T00:52:04.011Z,72.42
2017-08-28T00:54:33.122Z,72.95
2017-08-28T00:57:02.171Z,72.69
2017-08-28T00:59:31.322Z,72.71
2017-08-28T01:02:00.406Z,72.58
2017-08-28T01:04:29.512Z,72.65
2017-08-28T01:06:58.600Z,72.83
2017-08-28T01:09:27.644Z,72.67
2017-08-28T01:11:56.735Z,72.55
2017-08-28T01:14:25.852Z,72.99
2017-08-28T01:16:54.944Z,72.70
2017-08-28T01:19:23.998Z,72.99
2017-08-28T01:21:53.036Z,72.85
2017-08-28T01:24:22.104Z,72.68
2017-08-28T01:26:51.349Z,72.78
2017-08-28T01:29:20.420Z,72.87
2017-08-28T01:31:49.439Z,72.90
2017-08-28T01:34:18.501Z,72.58
2017-08-28T01:36:47.587Z,72.72
2017-08-28T01:39:16.671Z,72.51
2017-08-28T01:41:45.748Z,72.73
2017-08-28T01:44:14.811Z,72.63
2017-08-28T01:46:43.875Z,72.85
2017-08-28T01:49:12.947Z,72.39
2017-08-28T01:51:41.992Z,72.86
2017-08-28T01:54:11.128Z,72.56
2017-08-28T01:56:40.168Z,72.81
2017-08-28T01:59:09.253Z,72.50
2017-08-28T02:01:38.319Z,72.58
2017-08-28T02:04:07.375Z,72.62
2017-08-28T02:06:36.432Z,72.22
2017-08-28T02:09:05.532Z,72.26
2017-08-28T02:11:34.594Z,72.31
2017-08-28T02:14:03.663Z,72.04
2017-08-28T02:16:32.744Z,72.28
2017-08-28T02:19:01.816Z,72.27
2017-08-28T02:21:30.847Z,72.25
2017-08-28T02:23:59.964Z,72.28
2017-08-28T02:26:28.991Z,72.32
2017-08-28T02:28:58.046Z,72.04
2017-08-28T02:31:27.111Z,71.84
2017-08-28T02:33:56.164Z,71.83
2017-08-28T02:36:25.254Z,71.89
2017-08-28T02:38:54.296Z,71.54
2017-08-28T02:41:23.340Z,71.71
2017-08-28T02:43:52.415Z,71.97
2017-08-28T02:46:21.488Z,71.49
2017-08-28T02:48:50.634Z,71.64
2017-08-28T02:51:19.681Z,71.63
2017-08-28T02:53:48.753Z,71.69
2017-08-28T02:56:17.812Z,71.75
2017-08-28T02:58:46.889Z,72.01
2017-08-28T03:01:15.994Z,72.22
2017-08-28T03:03:45.081Z,72.38
2017-08-28T03:06:14.144Z,72.51
2017-08-28T03:08:43.217Z,72.37
2017-08-28T03:11:12.288Z,72.12
2017-08-28T03:13:41.355Z,72.40
2017-08-28T03:16:10.424Z,72.36
2017-08-28T03:18:39.829Z,72.35
2017-08-28T03:21:08.906Z,72.90
2017-08-28T03:23:37.968Z,72.50
2017-08-28T03:26:07.048Z,72.81
2017-08-28T03:28:36.104Z,72.75
2017-08-28T03:31:05.179Z,72.75
2017-08-28T03:33:34.230Z,72.89
2017-08-28T03:36:03.653Z,72.89
2017-08-28T03:38:32.724Z,72.77
2017-08-28T03:41:01.785Z,72.83
2017-08-28T03:43:30.880Z,73.06
2017-08-28T03:45:59.946Z,72.53
2017-08-28T03:48:28.996Z,72.75
2017-08-28T03:50:58.051Z,72.75
2017-08-28T03:53:27.108Z,72.99
2017-08-28T03:55:56.196Z,72.80
2017-08-28T03:58:25.320Z,72.70
2017-08-28T04:00:54.393Z,72.82
2017-08-28T04:03:23.440Z,73.06
2017-08-28T04:05:52.512Z,73.12
2017-08-28T04:08:21.576Z,73.28
2017-08-28T04:10:50.640Z,73.20
2017-08-28T04:13:19.713Z,73.05
2017-08-28T04:15:48.782Z,73.03
2017-08-28T04:18:17.884Z,72.79
2017-08-28T04:20:46.909Z,72.73
2017-08-28T04:23:15.988Z,72.89
2017-08-28T04:25:45.309Z,72.94
2017-08-28T04:28:14.352Z,73.04
2017-08-28T04:30:43.427Z,73.06
2017-08-28T04:33:12.499Z,73.16
2017-08-28T04:35:41.571Z,73.26
2017-08-28T04:38:10.613Z,72.87
2017-08-28T04:40:39.677Z,73.17
2017-08-28T04:43:08.756Z,73.07
2017-08-28T04:45:37.817Z,72.99
2017-08-28T04:48:07.643Z,73.00
2017-08-28T04:50:36.718Z,73.42
2017-08-28T04:53:05.761Z,73.00
2017-08-28T04:55:34.825Z,72.81
2017-08-28T04:58:03.888Z,72.71
2017-08-28T05:00:32.919Z,72.61
2017-08-28T05:03:02.029Z,72.31
2017-08-28T05:05:31.072Z,72.41
2017-08-28T05:08:00.446Z,72.78
2017-08-28T05:10:29.491Z,72.28
2017-08-28T05:12:58.585Z,72.18
2017-08-28T05:15:27.628Z,72.33
2017-08-28T05:17:56.672Z,72.16
2017-08-28T05:20:25.754Z,72.35
2017-08-28T05:22:54.826Z,72.31
2017-08-28T05:25:24.411Z,72.12
2017-08-28T05:27:53.442Z,71.93
2017-08-28T05:30:22.530Z,72.19
2017-08-28T05:32:51.553Z,72.38
2017-08-28T05:35:20.640Z,72.12
2017-08-28T05:37:49.912Z,72.03
2017-08-28T05:40:18.983Z,72.17
2017-08-28T05:42:48.032Z,72.17
2017-08-28T05:45:17.323Z,71.77
2017-08-28T05:47:46.396Z,71.62
2017-08-28T05:50:15.932Z,71.47
2017-08-28T05:52:44.977Z,71.66
2017-08-28T05:55:14.089Z,71.82
2017-08-28T05:57:43.183Z,71.41
2017-08-28T06:00:12.272Z,71.06
2017-08-28T06:02:41.304Z,70.71
2017-08-28T06:05:10.599Z,71.08
2017-08-28T06:07:39.680Z,71.05
2017-08-28T06:10:08.896Z,71.21
2017-08-28T06:12:37.967Z,70.77
2017-08-28T06:15:07.081Z,70.81
2017-08-28T06:17:36.159Z,70.29
2017-08-28T06:20:05.259Z,70.09
2017-08-28T06:22:34.271Z,70.47
2017-08-28T06:25:03.632Z,69.67
2017-08-28T06:27:33.034Z,69.82
2017-08-28T06:30:02.131Z,69.64
2017-08-28T06:32:31.184Z,69.67
2017-08-28T06:35:00.264Z,68.86
2017-08-28T06:37:29.325Z,69.33
2017-08-28T06:39:58.416Z,68.79
2017-08-28T06:42:27.464Z,68.95
2017-08-28T06:44:56.519Z,68.38
2017-08-28T06:47:25.586Z,68.56
2017-08-28T06:49:54.656Z,68.70
2017-08-28T06:52:23.739Z,68.35
2017-08-28T06:54:52.789Z,68.25
2017-08-28T06:57:21.876Z,67.76
2017-08-28T06:59:50.912Z,67.64
2017-08-28T07:02:19.959Z,67.07
2017-08-28T07:04:49.016Z,66.57
2017-08-28T07:07:18.836Z,65.65
2017-08-28T07:09:47.891Z,65.06
2017-08-28T07:12:16.937Z,64.55
2017-08-28T07:14:45.995Z,65.43
2017-08-28T07:17:15.054Z,64.16
2017-08-28T07:19:44.156Z,63.56
2017-08-28T07:22:13.204Z,64.30
2017-08-28T07:24:42.257Z,63.67
2017-08-28T07:27:11.328Z,63.49
2017-08-28T07:29:40.392Z,62.89
2017-08-28T07:32:09.716Z,63.67
2017-08-28T07:34:38.791Z,62.96
2017-08-28T07:37:07.835Z,62.31
2017-08-28T07:39:36.924Z,61.26
2017-08-28T07:42:05.969Z,61.94
2017-08-28T07:44:35.095Z,61.78
2017-08-28T07:47:04.445Z,60.90
2017-08-28T07:49:33.526Z,60.72
2017-08-28T07:52:02.576Z,59.40
2017-08-28T07:54:31.655Z,59.82
2017-08-28T07:57:00.715Z,60.17
2017-08-28T07:59:29.884Z,59.44
2017-08-28T08:01:58.945Z,59.29
2017-08-28T08:04:28.026Z,57.71
2017-08-28T08:06:57.074Z,57.22
2017-08-28T08:09:26.158Z,55.70
2017-08-28T08:11:55.500Z,56.13
2017-08-28T08:14:24.530Z,55.71
2017-08-28T08:16:53.586Z,54.80
2017-08-28T08:19:22.663Z,55.96
2017-08-28T08:21:51.741Z,55.34
2017-08-28T08:24:20.771Z,56.43
2017-08-28T08:26:49.869Z,55.25
2017-08-28T08:29:18.928Z,55.94
2017-08-28T08:31:47.996Z,55.91
2017-08-28T08:34:22.652Z,54.81
2017-08-28T08:36:51.728Z,53.88
2017-08-28T08:39:20.785Z,55.20
2017-08-28T08:41:49.867Z,53.64
2017-08-28T08:44:18.944Z,53.87
2017-08-28T08:46:48.005Z,52.77
2017-08-28T08:49:17.035Z,52.13
2017-08-28T08:51:46.150Z,50.59
2017-08-28T08:54:15.231Z,50.99
2017-08-28T08:56:44.264Z,50.16
2017-08-28T08:59:13.316Z,50.41
2017-08-28T09:01:42.415Z,51.24
2017-08-28T09:04:11.467Z,51.91
2017-08-28T09:06:40.555Z,50.69
2017-08-28T09:09:09.602Z,51.37
2017-08-28T09:11:38.659Z,50.71
2017-08-28T09:14:07.743Z,47.08
2017-08-28T09:16:36.867Z,45.55
2017-08-28T09:19:05.951Z,48.42
2017-08-28T09:21:35.024Z,47.80
2017-08-28T09:24:04.077Z,49.35
2017-08-28T09:26:33.258Z,46.36
2017-08-28T09:29:02.308Z,46.51
2017-08-28T09:31:31.374Z,43.71
2017-08-28T09:34:00.443Z,43.87
2017-08-28T09:36:29.507Z,44.16
2017-08-28T09:38:58.591Z,43.95
2017-08-28T09:41:27.631Z,44.38
2017-08-28T09:43:56.752Z,42.40
2017-08-28T09:46:25.854Z,43.89
2017-08-28T09:48:54.943Z,44.78
2017-08-28T09:51:23.970Z,43.66
2017-08-28T09:53:53.060Z,42.54
2017-08-28T09:56:22.148Z,43.14
2017-08-28T09:58:51.323Z,41.19
2017-08-28T10:01:20.496Z,41.99
2017-08-28T10:03:49.528Z,41.80
2017-08-28T10:06:18.563Z,42.14
2017-08-28T10:08:48.507Z,42.74
2017-08-28T10:11:17.589Z,42.52
2017-08-28T10:13:46.661Z,41.75
2017-08-28T10:16:15.716Z,41.52
2017-08-28T10:18:44.781Z,41.82
2017-08-28T10:21:13.833Z,42.39
2017-08-28T10:23:42.893Z,42.12
2017-08-28T10:26:11.979Z,42.38
2017-08-28T10:28:41.172Z,41.76
2017-08-28T10:31:10.301Z,42.31
2017-08-28T10:33:39.517Z,43.75
2017-08-28T10:36:08.987Z,43.55
2017-08-28T10:38:38.233Z,43.44
2017-08-28T10:41:07.298Z,44.18
2017-08-28T10:43:36.353Z,44.76
2017-08-28T10:46:05.740Z,44.97
2017-08-28T10:48:34.788Z,45.69
2017-08-28T10:51:03.888Z,45.38
2017-08-28T10:53:32.963Z,46.08
2017-08-28T10:56:01.996Z,46.37
2017-08-28T10:58:31.055Z,45.30
2017-08-28T11:01:00.107Z,44.10
2017-08-28T11:03:29.164Z,45.31
2017-08-28T11:05:58.234Z,45.40
2017-08-28T11:08:27.331Z,45.68
2017-08-28T11:10:56.376Z,46.30
2017-08-28T11:13:25.422Z,46.74
2017-08-28T11:15:54.492Z,45.88
2017-08-28T11:18:23.544Z,46.89
2017-08-28T11:20:52.620Z,45.70
2017-08-28T11:23:21.708Z,47.50
2017-08-28T11:25:51.133Z,44.95
2017-08-28T11:28:20.183Z,45.33
2017-08-28T11:30:49.265Z,44.81
2017-08-28T11:33:18.336Z,44.60
2017-08-28T11:35:47.391Z,44.39
2017-08-28T11:38:16.439Z,43.57
2017-08-28T11:40:45.523Z,45.42
2017-08-28T11:43:14.600Z,44.88
2017-08-28T11:45:43.621Z,43.47
2017-08-28T11:48:12.702Z,44.14
2017-08-28T11:50:41.754Z,43.79
2017-08-28T11:53:10.840Z,44.34
2017-08-28T11:55:39.904Z,45.43
2017-08-28T11:58:08.995Z,43.56
2017-08-28T12:00:38.042Z,43.79
2017-08-28T12:03:07.895Z,42.21
2017-08-28T12:05:36.967Z,41.38
2017-08-28T12:08:06.661Z,41.78
2017-08-28T12:10:35.683Z,40.60
2017-08-28T12:13:06.073Z,39.73
2017-08-28T12:15:35.112Z,40.92
2017-08-28T12:18:04.216Z,41.18
2017-08-28T12:20:33.384Z,39.27
2017-08-28T12:23:02.475Z,39.04
2017-08-28T12:25:31.522Z,38.83
2017-08-28T12:28:00.562Z,42.21
2017-08-28T12:30:29.641Z,39.54
2017-08-28T12:32:58.687Z,39.97
2017-08-28T12:35:27.755Z,39.07
2017-08-28T12:37:56.836Z,39.08
2017-08-28T12:40:25.883Z,39.21
2017-08-28T12:42:54.968Z,40.99
2017-08-28T12:45:24.043Z,40.16
2017-08-28T12:47:53.079Z,39.58
2017-08-28T12:50:22.156Z,39.63
2017-08-28T12:52:51.220Z,37.19
2017-08-28T12:55:20.299Z,39.55
2017-08-28T12:57:49.356Z,40.28
2017-08-28T13:00:18.404Z,39.37
2017-08-28T13:02:47.488Z,40.07
2017-08-28T13:05:16.624Z,39.35
2017-08-28T13:07:45.668Z,39.30
2017-08-28T13:10:14.808Z,40.20
2017-08-28T13:12:43.872Z,40.06
2017-08-28T13:15:12.960Z,40.89
2017-08-28T13:17:42.104Z,39.01
2017-08-28T13:20:11.250Z,40.96
2017-08-28T13:22:40.333Z,38.39
2017-08-28T13:25:09.711Z,38.53
2017-08-28T13:27:38.758Z,38.37
2017-08-28T13:30:07.815Z,38.82
2017-08-28T13:32:36.876Z,39.46
2017-08-28T13:35:05.948Z,38.94
2017-08-28T13:37:35.032Z,39.11
2017-08-28T13:40:04.093Z,40.80
2017-08-28T13:42:33.216Z,40.76
2017-08-28T13:45:02.411Z,41.01
2017-08-28T13:47:31.456Z,41.12
2017-08-28T13:50:00.516Z,40.01
2017-08-28T13:59:05.007Z,39.82
2017-08-28T14:01:34.036Z,40.25
2017-08-28T14:04:03.089Z,39.67
2017-08-28T14:06:32.162Z,38.88
2017-08-28T14:09:01.254Z,39.77
2017-08-28T14:11:30.291Z,39.33
2017-08-28T14:13:59.368Z,39.37
2017-08-28T14:16:28.442Z,40.34
2017-08-28T14:18:57.503Z,38.74
2017-08-28T14:21:26.565Z,39.78
2017-08-28T14:23:55.623Z,38.17
2017-08-28T14:26:24.713Z,38.62
2017-08-28T14:28:53.763Z,39.33
2017-08-28T14:31:22.832Z,38.52
2017-08-28T14:33:51.901Z,39.75
2017-08-28T14:36:20.977Z,38.22
2017-08-28T14:38:50.064Z,39.25
2017-08-28T14:41:19.117Z,39.34
2017-08-28T14:43:48.200Z,39.11
2017-08-28T14:46:17.236Z,38.94
2017-08-28T14:48:46.288Z,40.77
2017-08-28T14:51:15.358Z,39.59
2017-08-28T14:53:44.420Z,39.44
2017-08-28T14:56:13.565Z,38.92
2017-08-28T14:58:43.401Z,39.35
2017-08-28T15:01:12.469Z,38.79
2017-08-28T15:03:41.604Z,39.15
2017-08-28T15:06:10.669Z,40.21
2017-08-28T15:08:39.730Z,39.18
2017-08-28T15:11:08.828Z,39.88
2017-08-28T15:13:37.860Z,39.65
2017-08-28T15:16:08.568Z,40.04
2017-08-28T15:18:37.583Z,39.86
2017-08-28T15:21:06.727Z,40.02
2017-08-28T15:23:35.757Z,39.76
2017-08-28T15:26:04.867Z,39.63
2017-08-28T15:28:34.711Z,40.10
2017-08-28T15:31:03.732Z,40.45
2017-08-28T15:33:32.946Z,40.39
2017-08-28T15:36:02.027Z,40.28
2017-08-28T15:38:31.076Z,40.33
2017-08-28T15:41:00.117Z,40.43
2017-08-28T15:43:29.184Z,40.86
2017-08-28T15:45:58.283Z,39.83
2017-08-28T15:48:27.355Z,39.67
2017-08-28T15:50:56.415Z,40.08
2017-08-28T15:53:25.457Z,40.74
2017-08-28T15:55:54.519Z,40.76
2017-08-28T15:58:23.592Z,40.94
2017-08-28T16:00:52.627Z,40.98
2017-08-28T16:03:21.707Z,40.68
2017-08-28T16:05:50.794Z,40.94
2017-08-28T16:08:19.855Z,40.59
2017-08-28T16:10:48.914Z,40.98
2017-08-28T16:13:19.008Z,40.33
2017-08-28T16:15:48.268Z,40.84
2017-08-28T16:18:17.355Z,41.25
2017-08-28T16:20:46.412Z,41.23
2017-08-28T16:23:15.479Z,39.82
2017-08-28T16:25:44.573Z,41.07
2017-08-28T16:28:13.629Z,41.22
2017-08-28T16:30:42.687Z,41.20
2017-08-28T16:33:11.837Z,41.40
2017-08-28T16:35:40.869Z,41.05
2017-08-28T16:38:09.928Z,41.28
2017-08-28T16:40:39.029Z,41.43
2017-08-28T16:43:08.066Z,41.56
2017-08-28T16:45:37.107Z,41.81
2017-08-28T16:48:06.209Z,41.64
2017-08-28T16:50:35.248Z,41.44
2017-08-28T16:53:05.112Z,42.16
2017-08-28T16:55:34.168Z,42.17
2017-08-28T16:58:03.324Z,41.99
2017-08-28T17:00:32.376Z,42.47
2017-08-28T17:03:01.449Z,42.73
2017-08-28T17:05:31.307Z,42.64
2017-08-28T17:08:00.375Z,42.00
2017-08-28T17:10:29.423Z,42.40
2017-08-28T17:12:58.483Z,42.58
2017-08-28T17:15:27.541Z,43.07
2017-08-28T17:17:56.621Z,43.09
2017-08-28T17:20:25.695Z,43.27
2017-08-28T17:22:54.753Z,43.73
2017-08-28T17:25:23.806Z,44.18
2017-08-28T17:27:52.911Z,44.09
2017-08-28T17:30:22.058Z,44.18
2017-08-28T17:32:51.129Z,44.36
2017-08-28T17:35:20.203Z,44.85
2017-08-28T17:37:49.492Z,44.80
2017-08-28T17:40:18.578Z,44.92
2017-08-28T17:42:47.637Z,45.20
2017-08-28T17:45:16.711Z,45.20
2017-08-28T17:47:45.778Z,45.59
2017-08-28T17:50:14.886Z,45.77
2017-08-28T17:52:43.913Z,45.34
2017-08-28T17:55:16.271Z,45.94
2017-08-28T17:57:45.340Z,45.89
2017-08-28T18:00:14.913Z,46.16
2017-08-28T18:02:43.960Z,46.78
2017-08-28T18:05:13.013Z,47.08
2017-08-28T18:07:42.076Z,47.12
2017-08-28T18:10:11.141Z,46.77
2017-08-28T18:12:40.244Z,47.01
2017-08-28T18:15:09.365Z,47.28
2017-08-28T18:17:38.437Z,47.51
2017-08-28T18:20:07.529Z,47.67
2017-08-28T18:22:36.585Z,47.81
2017-08-28T18:25:13.519Z,47.80
2017-08-28T18:27:43.463Z,48.02
2017-08-28T18:30:13.519Z,48.28
2017-08-28T18:35:20.686Z,48.32
2017-08-28T18:37:50.396Z,48.78
2017-08-28T18:40:19.484Z,48.69
2017-08-28T18:42:48.528Z,48.87
2017-08-28T18:45:17.641Z,48.91
2017-08-28T18:47:46.708Z,49.26
2017-08-28T18:50:15.781Z,49.35
2017-08-28T18:52:44.820Z,49.61
2017-08-28T18:55:13.928Z,49.57
2017-08-28T18:57:43.530Z,49.78
2017-08-28T19:00:12.561Z,49.75
2017-08-28T19:02:41.652Z,49.88
2017-08-28T19:05:10.711Z,50.18
2017-08-28T19:07:40.549Z,50.66
2017-08-28T19:10:09.593Z,50.55
2017-08-28T19:12:38.678Z,50.79
2017-08-28T19:15:07.773Z,51.06
2017-08-28T19:17:36.848Z,51.12
2017-08-28T19:20:06.068Z,50.60
2017-08-28T19:22:36.192Z,51.27
2017-08-28T19:25:05.305Z,51.60
2017-08-28T19:27:35.190Z,52.07
2017-08-28T19:30:04.259Z,52.16
2017-08-28T19:32:33.339Z,54.47
2017-08-28T19:35:04.899Z,54.41
2017-08-28T19:37:34.027Z,54.26
2017-08-28T19:40:03.107Z,53.83
2017-08-28T19:42:32.176Z,53.98
2017-08-28T19:45:01.238Z,55.20
2017-08-28T19:47:30.332Z,55.55
2017-08-28T19:49:59.390Z,55.96
2017-08-28T19:52:28.451Z,55.79
2017-08-28T19:54:57.516Z,55.41
2017-08-28T19:57:26.588Z,55.20
2017-08-28T19:59:55.643Z,55.38
2017-08-28T20:02:30.185Z,55.52
2017-08-28T20:04:59.252Z,56.20
2017-08-28T20:07:28.326Z,56.24
2017-08-28T20:09:57.365Z,56.27
2017-08-28T20:12:26.467Z,56.46
2017-08-28T20:14:55.529Z,56.99
2017-08-28T20:17:24.609Z,57.27
2017-08-28T20:19:53.774Z,57.03
2017-08-28T20:22:22.819Z,57.16
2017-08-28T20:24:51.920Z,57.27
2017-08-28T20:27:21.000Z,57.98
2017-08-28T20:29:50.073Z,58.18
2017-08-28T20:32:20.175Z,58.46
2017-08-28T20:34:49.220Z,58.40
2017-08-28T20:37:18.324Z,59.03
2017-08-28T20:39:47.376Z,59.03
2017-08-28T20:42:16.448Z,59.25
2017-08-28T20:44:45.501Z,59.37
2017-08-28T20:47:14.582Z,59.35
2017-08-28T20:49:43.652Z,59.64
2017-08-28T20:52:12.732Z,59.74
2017-08-28T20:54:41.772Z,59.90
2017-08-28T20:57:10.833Z,60.13
2017-08-28T20:59:39.945Z,60.35
2017-08-28T21:02:09.187Z,60.94
2017-08-28T21:04:38.227Z,61.32
2017-08-28T21:07:07.309Z,61.41
2017-08-28T21:09:36.354Z,61.63
2017-08-28T21:12:05.530Z,61.97
2017-08-28T21:14:34.570Z,62.05
2017-08-28T21:17:03.663Z,62.36
2017-08-28T21:19:32.703Z,62.16
2017-08-28T21:22:02.554Z,62.77
2017-08-28T21:24:31.584Z,62.46
2017-08-28T21:27:00.641Z,63.63
2017-08-28T21:29:29.717Z,63.66
2017-08-28T21:31:58.767Z,63.52
2017-08-28T21:34:27.839Z,63.65
2017-08-28T21:36:56.932Z,63.40
2017-08-28T21:39:25.988Z,63.50
2017-08-28T21:41:55.092Z,63.90
2017-08-28T21:44:24.166Z,63.90
2017-08-28T21:46:54.032Z,63.63
2017-08-28T21:49:23.109Z,63.91
2017-08-28T21:51:52.176Z,63.66
2017-08-28T21:54:21.251Z,63.87
2017-08-28T21:56:50.286Z,63.72
2017-08-28T21:59:19.386Z,64.07
2017-08-28T22:01:48.847Z,64.06
2017-08-28T22:04:17.928Z,64.07
2017-08-28T22:06:46.963Z,64.32
2017-08-28T22:09:16.043Z,64.46
2017-08-28T22:11:45.112Z,64.66
2017-08-28T22:14:14.237Z,64.72
2017-08-28T22:16:43.580Z,64.73
2017-08-28T22:19:12.709Z,65.00
2017-08-28T22:21:41.751Z,65.14
2017-08-28T22:24:10.829Z,65.24
2017-08-28T22:26:39.901Z,65.61
2017-08-28T22:29:08.976Z,65.69
2017-08-28T22:31:38.041Z,65.68
2017-08-28T22:34:07.184Z,65.62
2017-08-28T22:36:37.738Z,65.67
2017-08-28T22:39:07.828Z,65.81
2017-08-28T22:41:36.915Z,65.73
2017-08-28T22:44:06.032Z,65.75
2017-08-28T22:46:35.451Z,65.85
2017-08-28T22:49:06.726Z,66.10
2017-08-28T22:51:39.805Z,66.09
2017-08-28T22:54:08.865Z,66.07
2017-08-28T22:56:37.937Z,65.96
2017-08-28T22:59:07.026Z,66.07
2017-08-28T23:01:36.097Z,66.01
2017-08-28T23:04:05.152Z,66.06
2017-08-28T23:06:34.219Z,66.28
2017-08-28T23:09:03.292Z,66.30
2017-08-28T23:11:33.375Z,66.45
2017-08-28T23:14:02.481Z,66.65
2017-08-28T23:16:31.558Z,66.68
2017-08-28T23:19:00.613Z,66.80
2017-08-28T23:21:29.755Z,66.76
2017-08-28T23:23:58.845Z,66.81
2017-08-28T23:26:28.690Z,66.78
2017-08-28T23:28:57.745Z,67.01
2017-08-28T23:31:26.851Z,67.31
2017-08-28T23:33:55.925Z,67.54
2017-08-28T23:36:24.957Z,67.80
2017-08-28T23:38:54.045Z,68.17
2017-08-28T23:41:23.872Z,68.51
2017-08-28T23:43:52.933Z,68.73
2017-08-28T23:46:21.993Z,68.80
2017-08-28T23:48:51.039Z,68.96
2017-08-28T23:51:20.192Z,69.21
2017-08-28T23:53:49.248Z,69.40
2017-08-28T23:56:18.308Z,69.68
2017-08-28T23:58:47.369Z,69.79
